sensor_id;sensor_type;location;lat;lon;timestamp;P1;durP1;ratioP1;P2;durP2;ratioP2
81884;SDS011;71340;55.154;30.266;2023-08-17T00:00:27;13.77;;;12.07;;
81884;SDS011;71340;55.154;30.266;2023-08-17T00:02:53;15.70;;;12.10;;
81884;SDS011;71340;55.154;30.266;2023-08-17T00:05:18;13.60;;;12.03;;
81884;SDS011;71340;55.154;30.266;2023-08-17T00:07:44;17.30;;;12.32;;
81884;SDS011;71340;55.154;30.266;2023-08-17T00:10:09;16.37;;;12.17;;
81884;SDS011;71340;55.154;30.266;2023-08-17T00:12:34;14.23;;;12.23;;
81884;SDS011;71340;55.154;30.266;2023-08-17T00:15:00;16.43;;;12.80;;
81884;SDS011;71340;55.154;30.266;2023-08-17T00:17:25;17.07;;;12.60;;
81884;SDS011;71340;55.154;30.266;2023-08-17T00:19:50;18.63;;;12.13;;
81884;SDS011;71340;55.154;30.266;2023-08-17T00:22:16;20.00;;;12.27;;
81884;SDS011;71340;55.154;30.266;2023-08-17T00:24:42;16.13;;;12.17;;
81884;SDS011;71340;55.154;30.266;2023-08-17T00:27:09;16.25;;;12.35;;
81884;SDS011;71340;55.154;30.266;2023-08-17T00:29:35;14.97;;;12.73;;
81884;SDS011;71340;55.154;30.266;2023-08-17T00:32:01;19.88;;;12.95;;
81884;SDS011;71340;55.154;30.266;2023-08-17T00:34:27;18.13;;;12.43;;
81884;SDS011;71340;55.154;30.266;2023-08-17T00:36:52;15.70;;;12.18;;
81884;SDS011;71340;55.154;30.266;2023-08-17T00:39:17;16.03;;;11.63;;
81884;SDS011;71340;55.154;30.266;2023-08-17T00:41:43;15.07;;;12.13;;
81884;SDS011;71340;55.154;30.266;2023-08-17T00:44:09;15.25;;;12.82;;
81884;SDS011;71340;55.154;30.266;2023-08-17T00:46:37;13.27;;;11.17;;
81884;SDS011;71340;55.154;30.266;2023-08-17T00:49:03;13.63;;;11.77;;
81884;SDS011;71340;55.154;30.266;2023-08-17T00:51:29;13.85;;;11.40;;
81884;SDS011;71340;55.154;30.266;2023-08-17T00:53:56;12.53;;;11.23;;
81884;SDS011;71340;55.154;30.266;2023-08-17T00:56:23;15.43;;;11.90;;
81884;SDS011;71340;55.154;30.266;2023-08-17T00:58:49;14.55;;;11.02;;
81884;SDS011;71340;55.154;30.266;2023-08-17T01:01:16;15.13;;;12.23;;
81884;SDS011;71340;55.154;30.266;2023-08-17T01:03:41;20.20;;;11.63;;
81884;SDS011;71340;55.154;30.266;2023-08-17T01:06:08;13.52;;;11.02;;
81884;SDS011;71340;55.154;30.266;2023-08-17T01:08:33;18.00;;;11.43;;
81884;SDS011;71340;55.154;30.266;2023-08-17T01:11:08;16.85;;;12.38;;
81884;SDS011;71340;55.154;30.266;2023-08-17T01:16:53;13.93;;;12.07;;
81884;SDS011;71340;55.154;30.266;2023-08-17T01:19:31;16.20;;;11.93;;
81884;SDS011;71340;55.154;30.266;2023-08-17T01:22:00;14.13;;;11.52;;
81884;SDS011;71340;55.154;30.266;2023-08-17T01:24:28;17.47;;;12.20;;
81884;SDS011;71340;55.154;30.266;2023-08-17T01:26:54;17.30;;;11.93;;
81884;SDS011;71340;55.154;30.266;2023-08-17T01:29:19;16.60;;;11.63;;
81884;SDS011;71340;55.154;30.266;2023-08-17T01:31:59;13.57;;;11.68;;
81884;SDS011;71340;55.154;30.266;2023-08-17T01:34:36;16.70;;;11.03;;
81884;SDS011;71340;55.154;30.266;2023-08-17T01:37:06;15.57;;;11.95;;
81884;SDS011;71340;55.154;30.266;2023-08-17T01:39:36;18.75;;;11.73;;
81884;SDS011;71340;55.154;30.266;2023-08-17T01:42:03;15.83;;;11.60;;
81884;SDS011;71340;55.154;30.266;2023-08-17T01:44:29;15.05;;;11.88;;
81884;SDS011;71340;55.154;30.266;2023-08-17T01:46:55;15.50;;;11.93;;
81884;SDS011;71340;55.154;30.266;2023-08-17T01:49:21;14.40;;;11.77;;
81884;SDS011;71340;55.154;30.266;2023-08-17T01:51:46;13.43;;;11.30;;
81884;SDS011;71340;55.154;30.266;2023-08-17T01:54:11;18.13;;;12.77;;
81884;SDS011;71340;55.154;30.266;2023-08-17T01:56:37;17.13;;;11.90;;
81884;SDS011;71340;55.154;30.266;2023-08-17T01:59:02;16.03;;;12.43;;
81884;SDS011;71340;55.154;30.266;2023-08-17T02:01:27;16.63;;;12.73;;
81884;SDS011;71340;55.154;30.266;2023-08-17T02:03:53;13.13;;;11.57;;
81884;SDS011;71340;55.154;30.266;2023-08-17T02:06:18;17.20;;;11.60;;
81884;SDS011;71340;55.154;30.266;2023-08-17T02:08:44;13.97;;;11.07;;
81884;SDS011;71340;55.154;30.266;2023-08-17T02:11:09;13.83;;;11.70;;
81884;SDS011;71340;55.154;30.266;2023-08-17T02:13:35;18.20;;;12.43;;
81884;SDS011;71340;55.154;30.266;2023-08-17T02:16:02;14.90;;;11.13;;
81884;SDS011;71340;55.154;30.266;2023-08-17T02:18:27;13.30;;;10.70;;
81884;SDS011;71340;55.154;30.266;2023-08-17T02:20:56;17.08;;;11.52;;
81884;SDS011;71340;55.154;30.266;2023-08-17T02:23:21;14.80;;;11.80;;
81884;SDS011;71340;55.154;30.266;2023-08-17T02:25:46;13.70;;;11.77;;
81884;SDS011;71340;55.154;30.266;2023-08-17T02:28:12;15.45;;;11.55;;
81884;SDS011;71340;55.154;30.266;2023-08-17T02:30:38;13.57;;;12.17;;
81884;SDS011;71340;55.154;30.266;2023-08-17T02:33:03;13.70;;;11.57;;
81884;SDS011;71340;55.154;30.266;2023-08-17T02:35:29;15.47;;;11.43;;
81884;SDS011;71340;55.154;30.266;2023-08-17T02:37:55;16.02;;;11.60;;
81884;SDS011;71340;55.154;30.266;2023-08-17T02:40:20;13.30;;;11.00;;
81884;SDS011;71340;55.154;30.266;2023-08-17T02:42:45;15.37;;;10.47;;
81884;SDS011;71340;55.154;30.266;2023-08-17T02:45:11;13.90;;;10.23;;
81884;SDS011;71340;55.154;30.266;2023-08-17T02:47:36;13.48;;;11.13;;
81884;SDS011;71340;55.154;30.266;2023-08-17T02:50:01;17.87;;;11.63;;
81884;SDS011;71340;55.154;30.266;2023-08-17T02:52:27;15.53;;;10.93;;
81884;SDS011;71340;55.154;30.266;2023-08-17T02:54:52;13.57;;;10.83;;
81884;SDS011;71340;55.154;30.266;2023-08-17T02:57:18;13.27;;;11.47;;
81884;SDS011;71340;55.154;30.266;2023-08-17T02:59:44;15.25;;;11.60;;
81884;SDS011;71340;55.154;30.266;2023-08-17T03:02:09;16.67;;;11.50;;
81884;SDS011;71340;55.154;30.266;2023-08-17T03:04:34;14.35;;;11.50;;
81884;SDS011;71340;55.154;30.266;2023-08-17T03:07:00;13.33;;;11.47;;
81884;SDS011;71340;55.154;30.266;2023-08-17T03:09:25;13.57;;;11.30;;
81884;SDS011;71340;55.154;30.266;2023-08-17T03:11:51;13.90;;;11.63;;
81884;SDS011;71340;55.154;30.266;2023-08-17T03:14:16;13.17;;;11.17;;
81884;SDS011;71340;55.154;30.266;2023-08-17T03:16:41;15.83;;;11.23;;
81884;SDS011;71340;55.154;30.266;2023-08-17T03:19:07;13.65;;;10.65;;
81884;SDS011;71340;55.154;30.266;2023-08-17T03:21:36;12.50;;;10.67;;
81884;SDS011;71340;55.154;30.266;2023-08-17T03:24:02;16.15;;;11.10;;
81884;SDS011;71340;55.154;30.266;2023-08-17T03:26:28;15.90;;;11.23;;
81884;SDS011;71340;55.154;30.266;2023-08-17T03:28:53;13.80;;;10.27;;
81884;SDS011;71340;55.154;30.266;2023-08-17T03:31:21;15.73;;;11.43;;
81884;SDS011;71340;55.154;30.266;2023-08-17T03:33:47;16.00;;;10.75;;
81884;SDS011;71340;55.154;30.266;2023-08-17T03:36:13;12.68;;;11.10;;
81884;SDS011;71340;55.154;30.266;2023-08-17T03:38:38;16.47;;;11.70;;
81884;SDS011;71340;55.154;30.266;2023-08-17T03:41:04;17.97;;;11.07;;
81884;SDS011;71340;55.154;30.266;2023-08-17T03:43:30;12.55;;;11.25;;
81884;SDS011;71340;55.154;30.266;2023-08-17T03:45:55;11.83;;;10.33;;
81884;SDS011;71340;55.154;30.266;2023-08-17T03:48:21;15.77;;;9.93;;
81884;SDS011;71340;55.154;30.266;2023-08-17T03:50:50;17.13;;;10.25;;
81884;SDS011;71340;55.154;30.266;2023-08-17T03:53:26;11.05;;;9.98;;
81884;SDS011;71340;55.154;30.266;2023-08-17T03:55:51;13.30;;;9.07;;
81884;SDS011;71340;55.154;30.266;2023-08-17T03:58:17;11.37;;;9.43;;
81884;SDS011;71340;55.154;30.266;2023-08-17T04:00:52;12.43;;;10.38;;
81884;SDS011;71340;55.154;30.266;2023-08-17T04:03:18;11.97;;;9.70;;
81884;SDS011;71340;55.154;30.266;2023-08-17T04:05:44;11.75;;;9.48;;
81884;SDS011;71340;55.154;30.266;2023-08-17T04:08:10;11.93;;;10.33;;
81884;SDS011;71340;55.154;30.266;2023-08-17T04:10:35;13.80;;;10.63;;
81884;SDS011;71340;55.154;30.266;2023-08-17T04:13:01;13.17;;;9.57;;
81884;SDS011;71340;55.154;30.266;2023-08-17T04:15:26;11.67;;;10.50;;
81884;SDS011;71340;55.154;30.266;2023-08-17T04:17:51;11.53;;;10.23;;
81884;SDS011;71340;55.154;30.266;2023-08-17T04:20:17;11.60;;;10.40;;
81884;SDS011;71340;55.154;30.266;2023-08-17T04:22:43;9.70;;;8.80;;
81884;SDS011;71340;55.154;30.266;2023-08-17T04:25:09;10.83;;;9.20;;
81884;SDS011;71340;55.154;30.266;2023-08-17T04:27:34;12.82;;;9.23;;
81884;SDS011;71340;55.154;30.266;2023-08-17T04:30:00;11.87;;;9.80;;
81884;SDS011;71340;55.154;30.266;2023-08-17T04:32:26;11.57;;;9.10;;
81884;SDS011;71340;55.154;30.266;2023-08-17T04:34:51;13.57;;;9.53;;
81884;SDS011;71340;55.154;30.266;2023-08-17T04:37:16;14.40;;;10.33;;
81884;SDS011;71340;55.154;30.266;2023-08-17T04:39:42;11.47;;;9.50;;
81884;SDS011;71340;55.154;30.266;2023-08-17T04:42:08;13.50;;;9.88;;
81884;SDS011;71340;55.154;30.266;2023-08-17T04:44:34;15.18;;;10.50;;
81884;SDS011;71340;55.154;30.266;2023-08-17T04:47:00;18.33;;;10.60;;
81884;SDS011;71340;55.154;30.266;2023-08-17T04:49:25;11.93;;;9.30;;
81884;SDS011;71340;55.154;30.266;2023-08-17T04:51:51;13.50;;;9.25;;
81884;SDS011;71340;55.154;30.266;2023-08-17T04:54:17;13.37;;;9.23;;
81884;SDS011;71340;55.154;30.266;2023-08-17T04:56:42;10.70;;;9.23;;
81884;SDS011;71340;55.154;30.266;2023-08-17T04:59:08;13.87;;;9.43;;
81884;SDS011;71340;55.154;30.266;2023-08-17T05:01:34;12.55;;;9.52;;
81884;SDS011;71340;55.154;30.266;2023-08-17T05:04:00;11.40;;;9.50;;
81884;SDS011;71340;55.154;30.266;2023-08-17T05:06:27;15.05;;;9.70;;
81884;SDS011;71340;55.154;30.266;2023-08-17T05:08:53;13.25;;;9.60;;
81884;SDS011;71340;55.154;30.266;2023-08-17T05:11:18;11.60;;;9.50;;
81884;SDS011;71340;55.154;30.266;2023-08-17T05:13:44;11.53;;;9.50;;
81884;SDS011;71340;55.154;30.266;2023-08-17T05:16:09;11.33;;;9.93;;
81884;SDS011;71340;55.154;30.266;2023-08-17T05:18:34;13.20;;;9.80;;
81884;SDS011;71340;55.154;30.266;2023-08-17T05:21:00;16.63;;;10.50;;
81884;SDS011;71340;55.154;30.266;2023-08-17T05:23:25;12.50;;;9.40;;
81884;SDS011;71340;55.154;30.266;2023-08-17T05:25:51;13.67;;;9.63;;
81884;SDS011;71340;55.154;30.266;2023-08-17T05:28:16;10.83;;;8.37;;
81884;SDS011;71340;55.154;30.266;2023-08-17T05:30:41;13.17;;;8.77;;
81884;SDS011;71340;55.154;30.266;2023-08-17T05:33:07;13.57;;;10.43;;
81884;SDS011;71340;55.154;30.266;2023-08-17T05:35:32;12.73;;;9.60;;
81884;SDS011;71340;55.154;30.266;2023-08-17T05:37:57;13.50;;;9.70;;
81884;SDS011;71340;55.154;30.266;2023-08-17T05:40:23;15.43;;;9.80;;
81884;SDS011;71340;55.154;30.266;2023-08-17T05:42:48;12.20;;;9.60;;
81884;SDS011;71340;55.154;30.266;2023-08-17T05:45:13;13.07;;;9.97;;
81884;SDS011;71340;55.154;30.266;2023-08-17T05:47:39;11.33;;;9.67;;
81884;SDS011;71340;55.154;30.266;2023-08-17T05:50:04;15.85;;;9.77;;
81884;SDS011;71340;55.154;30.266;2023-08-17T05:52:31;14.00;;;10.70;;
81884;SDS011;71340;55.154;30.266;2023-08-17T05:54:56;13.95;;;9.52;;
81884;SDS011;71340;55.154;30.266;2023-08-17T05:57:21;18.73;;;10.50;;
81884;SDS011;71340;55.154;30.266;2023-08-17T05:59:47;13.20;;;10.30;;
81884;SDS011;71340;55.154;30.266;2023-08-17T06:02:12;15.80;;;9.43;;
81884;SDS011;71340;55.154;30.266;2023-08-17T06:04:38;11.02;;;9.25;;
81884;SDS011;71340;55.154;30.266;2023-08-17T06:07:03;14.33;;;9.97;;
81884;SDS011;71340;55.154;30.266;2023-08-17T06:09:28;12.93;;;9.13;;
81884;SDS011;71340;55.154;30.266;2023-08-17T06:11:54;12.73;;;10.03;;
81884;SDS011;71340;55.154;30.266;2023-08-17T06:14:19;15.30;;;9.10;;
81884;SDS011;71340;55.154;30.266;2023-08-17T06:16:44;13.57;;;9.87;;
81884;SDS011;71340;55.154;30.266;2023-08-17T06:19:10;11.97;;;9.60;;
81884;SDS011;71340;55.154;30.266;2023-08-17T06:21:35;12.23;;;8.90;;
81884;SDS011;71340;55.154;30.266;2023-08-17T06:24:00;13.47;;;10.07;;
81884;SDS011;71340;55.154;30.266;2023-08-17T06:26:26;11.53;;;8.83;;
81884;SDS011;71340;55.154;30.266;2023-08-17T06:28:51;13.73;;;9.90;;
81884;SDS011;71340;55.154;30.266;2023-08-17T06:31:16;11.83;;;9.27;;
81884;SDS011;71340;55.154;30.266;2023-08-17T06:33:42;10.57;;;8.70;;
81884;SDS011;71340;55.154;30.266;2023-08-17T06:36:07;18.30;;;8.87;;
81884;SDS011;71340;55.154;30.266;2023-08-17T06:38:32;12.48;;;9.38;;
81884;SDS011;71340;55.154;30.266;2023-08-17T06:40:58;16.17;;;9.47;;
81884;SDS011;71340;55.154;30.266;2023-08-17T06:43:23;12.47;;;8.47;;
81884;SDS011;71340;55.154;30.266;2023-08-17T06:45:48;13.27;;;8.70;;
81884;SDS011;71340;55.154;30.266;2023-08-17T06:48:14;11.90;;;9.03;;
81884;SDS011;71340;55.154;30.266;2023-08-17T06:50:39;12.37;;;8.93;;
81884;SDS011;71340;55.154;30.266;2023-08-17T06:53:04;10.50;;;8.43;;
81884;SDS011;71340;55.154;30.266;2023-08-17T06:55:30;13.03;;;8.53;;
81884;SDS011;71340;55.154;30.266;2023-08-17T06:57:56;11.13;;;8.70;;
81884;SDS011;71340;55.154;30.266;2023-08-17T07:00:22;14.40;;;9.27;;
81884;SDS011;71340;55.154;30.266;2023-08-17T07:02:48;10.32;;;9.02;;
81884;SDS011;71340;55.154;30.266;2023-08-17T07:05:14;11.07;;;8.53;;
81884;SDS011;71340;55.154;30.266;2023-08-17T07:07:40;9.70;;;8.15;;
81884;SDS011;71340;55.154;30.266;2023-08-17T07:10:06;14.37;;;8.13;;
81884;SDS011;71340;55.154;30.266;2023-08-17T07:12:32;15.60;;;9.65;;
81884;SDS011;71340;55.154;30.266;2023-08-17T07:14:58;10.55;;;8.50;;
81884;SDS011;71340;55.154;30.266;2023-08-17T07:17:23;14.03;;;8.63;;
81884;SDS011;71340;55.154;30.266;2023-08-17T07:19:49;11.43;;;8.63;;
81884;SDS011;71340;55.154;30.266;2023-08-17T07:22:14;10.00;;;8.27;;
81884;SDS011;71340;55.154;30.266;2023-08-17T07:24:41;11.82;;;8.20;;
81884;SDS011;71340;55.154;30.266;2023-08-17T07:27:06;13.93;;;8.20;;
81884;SDS011;71340;55.154;30.266;2023-08-17T07:29:32;11.67;;;7.90;;
81884;SDS011;71340;55.154;30.266;2023-08-17T07:31:57;11.63;;;8.65;;
81884;SDS011;71340;55.154;30.266;2023-08-17T07:34:26;9.40;;;8.47;;
81884;SDS011;71340;55.154;30.266;2023-08-17T07:36:52;11.95;;;8.60;;
81884;SDS011;71340;55.154;30.266;2023-08-17T07:39:17;10.30;;;7.83;;
81884;SDS011;71340;55.154;30.266;2023-08-17T07:41:43;8.98;;;8.07;;
81884;SDS011;71340;55.154;30.266;2023-08-17T07:44:09;14.70;;;8.17;;
81884;SDS011;71340;55.154;30.266;2023-08-17T07:46:34;9.70;;;8.57;;
81884;SDS011;71340;55.154;30.266;2023-08-17T07:49:00;13.33;;;7.90;;
81884;SDS011;71340;55.154;30.266;2023-08-17T07:51:25;10.75;;;8.25;;
81884;SDS011;71340;55.154;30.266;2023-08-17T07:53:50;9.40;;;7.77;;
81884;SDS011;71340;55.154;30.266;2023-08-17T07:56:16;12.67;;;7.03;;
81884;SDS011;71340;55.154;30.266;2023-08-17T07:58:41;10.00;;;8.37;;
81884;SDS011;71340;55.154;30.266;2023-08-17T08:01:09;8.63;;;7.50;;
81884;SDS011;71340;55.154;30.266;2023-08-17T08:03:35;9.23;;;7.80;;
81884;SDS011;71340;55.154;30.266;2023-08-17T08:06:00;10.97;;;8.13;;
81884;SDS011;71340;55.154;30.266;2023-08-17T08:08:25;10.37;;;7.90;;
81884;SDS011;71340;55.154;30.266;2023-08-17T08:10:52;10.03;;;7.93;;
81884;SDS011;71340;55.154;30.266;2023-08-17T08:13:18;8.30;;;7.30;;
81884;SDS011;71340;55.154;30.266;2023-08-17T08:15:43;8.53;;;7.63;;
81884;SDS011;71340;55.154;30.266;2023-08-17T08:18:09;9.43;;;7.72;;
81884;SDS011;71340;55.154;30.266;2023-08-17T08:20:35;12.03;;;7.63;;
81884;SDS011;71340;55.154;30.266;2023-08-17T08:23:01;11.43;;;7.87;;
81884;SDS011;71340;55.154;30.266;2023-08-17T08:25:27;12.85;;;7.55;;
81884;SDS011;71340;55.154;30.266;2023-08-17T08:27:52;8.37;;;7.00;;
81884;SDS011;71340;55.154;30.266;2023-08-17T08:30:18;9.30;;;7.60;;
81884;SDS011;71340;55.154;30.266;2023-08-17T08:32:43;8.80;;;7.90;;
81884;SDS011;71340;55.154;30.266;2023-08-17T08:35:08;8.98;;;7.78;;
81884;SDS011;71340;55.154;30.266;2023-08-17T08:37:34;8.90;;;8.00;;
81884;SDS011;71340;55.154;30.266;2023-08-17T08:39:59;9.77;;;6.73;;
81884;SDS011;71340;55.154;30.266;2023-08-17T08:42:24;7.97;;;6.57;;
81884;SDS011;71340;55.154;30.266;2023-08-17T08:44:50;8.87;;;7.10;;
81884;SDS011;71340;55.154;30.266;2023-08-17T08:47:16;14.82;;;7.53;;
81884;SDS011;71340;55.154;30.266;2023-08-17T08:52:26;11.33;;;7.23;;
81884;SDS011;71340;55.154;30.266;2023-08-17T08:54:58;9.23;;;6.95;;
81884;SDS011;71340;55.154;30.266;2023-08-17T08:57:28;8.35;;;7.30;;
81884;SDS011;71340;55.154;30.266;2023-08-17T08:59:53;7.77;;;6.60;;
81884;SDS011;71340;55.154;30.266;2023-08-17T09:02:20;8.30;;;7.38;;
81884;SDS011;71340;55.154;30.266;2023-08-17T09:04:45;9.40;;;7.60;;
81884;SDS011;71340;55.154;30.266;2023-08-17T09:07:14;8.80;;;7.15;;
81884;SDS011;71340;55.154;30.266;2023-08-17T09:09:43;8.10;;;6.97;;
81884;SDS011;71340;55.154;30.266;2023-08-17T09:12:12;12.27;;;7.70;;
81884;SDS011;71340;55.154;30.266;2023-08-17T09:14:37;7.63;;;6.82;;
81884;SDS011;71340;55.154;30.266;2023-08-17T09:17:04;10.40;;;7.50;;
81884;SDS011;71340;55.154;30.266;2023-08-17T09:19:33;8.20;;;6.60;;
81884;SDS011;71340;55.154;30.266;2023-08-17T09:21:59;7.95;;;6.78;;
81884;SDS011;71340;55.154;30.266;2023-08-17T09:24:35;7.57;;;6.78;;
81884;SDS011;71340;55.154;30.266;2023-08-17T09:27:01;13.43;;;7.57;;
81884;SDS011;71340;55.154;30.266;2023-08-17T09:29:27;8.10;;;6.50;;
81884;SDS011;71340;55.154;30.266;2023-08-17T09:31:53;12.10;;;6.80;;
81884;SDS011;71340;55.154;30.266;2023-08-17T09:34:18;10.37;;;6.87;;
81884;SDS011;71340;55.154;30.266;2023-08-17T09:36:46;8.98;;;7.25;;
81884;SDS011;71340;55.154;30.266;2023-08-17T09:39:12;10.63;;;7.00;;
81884;SDS011;71340;55.154;30.266;2023-08-17T09:41:43;7.40;;;6.70;;
81884;SDS011;71340;55.154;30.266;2023-08-17T09:44:09;11.27;;;7.88;;
81884;SDS011;71340;55.154;30.266;2023-08-17T09:46:34;9.43;;;7.10;;
81884;SDS011;71340;55.154;30.266;2023-08-17T09:49:02;9.35;;;6.85;;
81884;SDS011;71340;55.154;30.266;2023-08-17T09:51:33;9.77;;;7.40;;
81884;SDS011;71340;55.154;30.266;2023-08-17T09:53:59;7.70;;;7.00;;
81884;SDS011;71340;55.154;30.266;2023-08-17T09:56:24;9.60;;;7.40;;
81884;SDS011;71340;55.154;30.266;2023-08-17T09:58:55;7.63;;;6.93;;
81884;SDS011;71340;55.154;30.266;2023-08-17T10:01:21;9.33;;;7.03;;
81884;SDS011;71340;55.154;30.266;2023-08-17T10:03:47;8.20;;;6.90;;
81884;SDS011;71340;55.154;30.266;2023-08-17T10:06:17;7.67;;;6.70;;
81884;SDS011;71340;55.154;30.266;2023-08-17T10:08:47;7.80;;;7.00;;
81884;SDS011;71340;55.154;30.266;2023-08-17T10:11:18;7.80;;;7.00;;
81884;SDS011;71340;55.154;30.266;2023-08-17T10:13:59;7.73;;;7.03;;
81884;SDS011;71340;55.154;30.266;2023-08-17T10:19:16;8.30;;;6.70;;
81884;SDS011;71340;55.154;30.266;2023-08-17T10:21:48;7.60;;;6.90;;
81884;SDS011;71340;55.154;30.266;2023-08-17T10:24:19;7.82;;;6.68;;
81884;SDS011;71340;55.154;30.266;2023-08-17T10:26:46;8.88;;;7.45;;
81884;SDS011;71340;55.154;30.266;2023-08-17T10:29:13;10.57;;;7.75;;
81884;SDS011;71340;55.154;30.266;2023-08-17T10:31:39;9.60;;;7.57;;
81884;SDS011;71340;55.154;30.266;2023-08-17T10:34:10;8.77;;;7.38;;
81884;SDS011;71340;55.154;30.266;2023-08-17T10:36:36;8.10;;;7.23;;
81884;SDS011;71340;55.154;30.266;2023-08-17T10:41:51;8.18;;;7.38;;
81884;SDS011;71340;55.154;30.266;2023-08-17T10:44:18;10.95;;;7.60;;
81884;SDS011;71340;55.154;30.266;2023-08-17T10:47:24;8.27;;;7.10;;
81884;SDS011;71340;55.154;30.266;2023-08-17T10:49:56;13.27;;;7.22;;
81884;SDS011;71340;55.154;30.266;2023-08-17T10:52:41;8.05;;;7.25;;
81884;SDS011;71340;55.154;30.266;2023-08-17T10:55:09;10.30;;;7.70;;
81884;SDS011;71340;55.154;30.266;2023-08-17T10:57:38;9.23;;;6.90;;
81884;SDS011;71340;55.154;30.266;2023-08-17T11:02:55;10.73;;;7.43;;
81884;SDS011;71340;55.154;30.266;2023-08-17T11:05:34;8.83;;;7.50;;
81884;SDS011;71340;55.154;30.266;2023-08-17T11:08:01;9.00;;;8.07;;
81884;SDS011;71340;55.154;30.266;2023-08-17T11:10:29;9.43;;;8.43;;
81884;SDS011;71340;55.154;30.266;2023-08-17T11:12:55;8.45;;;7.65;;
81884;SDS011;71340;55.154;30.266;2023-08-17T11:15:25;8.38;;;7.35;;
81884;SDS011;71340;55.154;30.266;2023-08-17T11:17:51;8.50;;;6.90;;
81884;SDS011;71340;55.154;30.266;2023-08-17T11:20:17;8.98;;;7.22;;
81884;SDS011;71340;55.154;30.266;2023-08-17T11:22:43;8.20;;;7.40;;
81884;SDS011;71340;55.154;30.266;2023-08-17T11:25:11;9.63;;;7.68;;
81884;SDS011;71340;55.154;30.266;2023-08-17T11:27:37;9.30;;;7.70;;
81884;SDS011;71340;55.154;30.266;2023-08-17T11:30:02;9.93;;;7.53;;
81884;SDS011;71340;55.154;30.266;2023-08-17T11:32:28;9.60;;;7.50;;
81884;SDS011;71340;55.154;30.266;2023-08-17T11:34:54;10.63;;;7.15;;
81884;SDS011;71340;55.154;30.266;2023-08-17T11:37:20;9.68;;;7.78;;
81884;SDS011;71340;55.154;30.266;2023-08-17T11:39:46;10.53;;;7.70;;
81884;SDS011;71340;55.154;30.266;2023-08-17T11:42:11;13.43;;;7.80;;
81884;SDS011;71340;55.154;30.266;2023-08-17T11:44:37;9.15;;;7.95;;
81884;SDS011;71340;55.154;30.266;2023-08-17T11:47:02;8.80;;;8.00;;
81884;SDS011;71340;55.154;30.266;2023-08-17T11:49:30;9.77;;;8.07;;
81884;SDS011;71340;55.154;30.266;2023-08-17T11:51:56;10.00;;;7.55;;
81884;SDS011;71340;55.154;30.266;2023-08-17T11:54:22;11.93;;;8.13;;
81884;SDS011;71340;55.154;30.266;2023-08-17T11:56:47;8.57;;;7.70;;
81884;SDS011;71340;55.154;30.266;2023-08-17T11:59:13;8.83;;;7.77;;
81884;SDS011;71340;55.154;30.266;2023-08-17T12:01:39;12.27;;;7.67;;
81884;SDS011;71340;55.154;30.266;2023-08-17T12:04:05;8.57;;;7.53;;
81884;SDS011;71340;55.154;30.266;2023-08-17T12:06:31;11.18;;;7.72;;
81884;SDS011;71340;55.154;30.266;2023-08-17T12:08:56;10.43;;;7.13;;
81884;SDS011;71340;55.154;30.266;2023-08-17T12:11:25;9.00;;;7.93;;
81884;SDS011;71340;55.154;30.266;2023-08-17T12:13:53;9.32;;;7.93;;
81884;SDS011;71340;55.154;30.266;2023-08-17T12:16:19;9.10;;;8.05;;
81884;SDS011;71340;55.154;30.266;2023-08-17T12:18:49;11.35;;;8.40;;
81884;SDS011;71340;55.154;30.266;2023-08-17T12:21:15;12.20;;;8.03;;
81884;SDS011;71340;55.154;30.266;2023-08-17T12:23:40;8.73;;;7.82;;
81884;SDS011;71340;55.154;30.266;2023-08-17T12:26:07;8.63;;;7.83;;
81884;SDS011;71340;55.154;30.266;2023-08-17T12:28:32;10.50;;;8.03;;
81884;SDS011;71340;55.154;30.266;2023-08-17T12:30:59;8.68;;;7.78;;
81884;SDS011;71340;55.154;30.266;2023-08-17T12:33:25;9.20;;;8.30;;
81884;SDS011;71340;55.154;30.266;2023-08-17T12:35:51;10.13;;;7.97;;
81884;SDS011;71340;55.154;30.266;2023-08-17T12:38:16;11.37;;;8.20;;
81884;SDS011;71340;55.154;30.266;2023-08-17T12:40:41;12.37;;;8.57;;
81884;SDS011;71340;55.154;30.266;2023-08-17T12:43:07;9.27;;;8.27;;
81884;SDS011;71340;55.154;30.266;2023-08-17T12:45:32;10.00;;;8.97;;
81884;SDS011;71340;55.154;30.266;2023-08-17T12:47:59;9.57;;;8.67;;
81884;SDS011;71340;55.154;30.266;2023-08-17T12:50:24;10.85;;;9.18;;
81884;SDS011;71340;55.154;30.266;2023-08-17T12:52:50;9.00;;;8.10;;
81884;SDS011;71340;55.154;30.266;2023-08-17T12:55:17;9.45;;;7.60;;
81884;SDS011;71340;55.154;30.266;2023-08-17T12:57:43;13.87;;;8.37;;
81884;SDS011;71340;55.154;30.266;2023-08-17T13:00:08;9.40;;;7.50;;
81884;SDS011;71340;55.154;30.266;2023-08-17T13:02:34;9.40;;;8.48;;
81884;SDS011;71340;55.154;30.266;2023-08-17T13:04:59;10.17;;;8.53;;
81884;SDS011;71340;55.154;30.266;2023-08-17T13:07:25;9.13;;;8.13;;
81884;SDS011;71340;55.154;30.266;2023-08-17T13:09:50;10.93;;;7.80;;
81884;SDS011;71340;55.154;30.266;2023-08-17T13:12:15;9.30;;;8.40;;
81884;SDS011;71340;55.154;30.266;2023-08-17T13:14:41;9.00;;;8.15;;
81884;SDS011;71340;55.154;30.266;2023-08-17T13:17:06;9.13;;;7.93;;
81884;SDS011;71340;55.154;30.266;2023-08-17T13:19:32;8.70;;;7.80;;
81884;SDS011;71340;55.154;30.266;2023-08-17T13:21:57;9.65;;;8.75;;
81884;SDS011;71340;55.154;30.266;2023-08-17T13:24:23;10.90;;;7.77;;
81884;SDS011;71340;55.154;30.266;2023-08-17T13:26:48;8.53;;;7.60;;
81884;SDS011;71340;55.154;30.266;2023-08-17T13:29:17;10.65;;;8.60;;
81884;SDS011;71340;55.154;30.266;2023-08-17T13:31:43;8.90;;;8.03;;
81884;SDS011;71340;55.154;30.266;2023-08-17T13:34:08;8.50;;;7.77;;
81884;SDS011;71340;55.154;30.266;2023-08-17T13:36:36;9.68;;;8.52;;
81884;SDS011;71340;55.154;30.266;2023-08-17T13:39:02;8.73;;;7.93;;
81884;SDS011;71340;55.154;30.266;2023-08-17T13:41:27;11.05;;;8.68;;
81884;SDS011;71340;55.154;30.266;2023-08-17T13:43:52;9.40;;;8.50;;
81884;SDS011;71340;55.154;30.266;2023-08-17T13:46:18;10.83;;;9.83;;
81884;SDS011;71340;55.154;30.266;2023-08-17T13:48:43;9.00;;;8.13;;
81884;SDS011;71340;55.154;30.266;2023-08-17T13:51:08;9.13;;;8.20;;
81884;SDS011;71340;55.154;30.266;2023-08-17T13:53:34;9.17;;;8.20;;
81884;SDS011;71340;55.154;30.266;2023-08-17T13:55:59;8.75;;;7.95;;
81884;SDS011;71340;55.154;30.266;2023-08-17T13:58:24;10.03;;;9.13;;
81884;SDS011;71340;55.154;30.266;2023-08-17T14:00:50;9.30;;;8.50;;
81884;SDS011;71340;55.154;30.266;2023-08-17T14:03:15;9.87;;;8.87;;
81884;SDS011;71340;55.154;30.266;2023-08-17T14:05:41;32.80;;;29.37;;
81884;SDS011;71340;55.154;30.266;2023-08-17T14:08:06;14.45;;;13.05;;
81884;SDS011;71340;55.154;30.266;2023-08-17T14:10:32;10.30;;;9.33;;
81884;SDS011;71340;55.154;30.266;2023-08-17T14:13:01;9.60;;;8.70;;
81884;SDS011;71340;55.154;30.266;2023-08-17T14:15:26;10.20;;;9.20;;
81884;SDS011;71340;55.154;30.266;2023-08-17T14:17:51;8.60;;;7.80;;
81884;SDS011;71340;55.154;30.266;2023-08-17T14:20:17;9.25;;;8.35;;
81884;SDS011;71340;55.154;30.266;2023-08-17T14:22:42;8.30;;;7.50;;
81884;SDS011;71340;55.154;30.266;2023-08-17T14:25:07;8.67;;;7.87;;
81884;SDS011;71340;55.154;30.266;2023-08-17T14:27:33;9.83;;;8.93;;
81884;SDS011;71340;55.154;30.266;2023-08-17T14:29:58;9.50;;;8.53;;